Terminal Aerodrome Forecast
Issued by NWS

Home | Current Version | Previous Version | Graphics & Text | Print | Product List | Glossary On
Versions: 1 2 3 4 5 6 7 8 9 10 11 12 13 14 15 16 17 18 19
032
FTUS43 KMPX 052329
TAFRWF
TAF
KRWF 052329Z 0600/0624 20012KT P6SM OVC100
     FM060200 25016G25KT P6SM OVC070
     FM060700 26017G26KT P6SM OVC035
     FM061400 26022G35KT P6SM VCSH OVC020 PROB30 0615/0619 3SM -SHSN
      OVC015
     FM061900 28023G35KT P6SM OVC030=

USA.gov is the U.S. government's official web portal to all federal, state and local government web resources and services.